sensor_id;sensor_type;location;lat;lon;timestamp;P1;durP1;ratioP1;P2;durP2;ratioP2
71838;SDS011;59687;37.520;15.068;2023-02-01T00:01:05;9.18;;;3.90;;
71838;SDS011;59687;37.520;15.068;2023-02-01T00:03:34;8.00;;;3.80;;
71838;SDS011;59687;37.520;15.068;2023-02-01T00:06:04;7.03;;;3.50;;
71838;SDS011;59687;37.520;15.068;2023-02-01T00:08:31;13.90;;;10.60;;
71838;SDS011;59687;37.520;15.068;2023-02-01T00:11:05;7.32;;;3.60;;
71838;SDS011;59687;37.520;15.068;2023-02-01T00:13:35;7.93;;;3.03;;
71838;SDS011;59687;37.520;15.068;2023-02-01T00:16:07;6.03;;;2.20;;
71838;SDS011;59687;37.520;15.068;2023-02-01T00:18:36;5.35;;;2.20;;
71838;SDS011;59687;37.520;15.068;2023-02-01T00:21:04;5.30;;;2.55;;
71838;SDS011;59687;37.520;15.068;2023-02-01T00:23:32;5.35;;;2.00;;
71838;SDS011;59687;37.520;15.068;2023-02-01T00:26:01;6.60;;;2.47;;
71838;SDS011;59687;37.520;15.068;2023-02-01T00:28:29;6.53;;;2.70;;
71838;SDS011;59687;37.520;15.068;2023-02-01T00:30:57;5.78;;;1.80;;
71838;SDS011;59687;37.520;15.068;2023-02-01T00:33:32;6.93;;;2.00;;
71838;SDS011;59687;37.520;15.068;2023-02-01T00:36:00;6.90;;;2.05;;
71838;SDS011;59687;37.520;15.068;2023-02-01T00:38:33;7.55;;;2.65;;
71838;SDS011;59687;37.520;15.068;2023-02-01T00:41:03;6.93;;;2.20;;
71838;SDS011;59687;37.520;15.068;2023-02-01T00:43:36;4.82;;;1.75;;
71838;SDS011;59687;37.520;15.068;2023-02-01T00:46:03;6.70;;;2.15;;
71838;SDS011;59687;37.520;15.068;2023-02-01T00:48:34;5.10;;;2.05;;
71838;SDS011;59687;37.520;15.068;2023-02-01T00:51:08;5.82;;;2.22;;
71838;SDS011;59687;37.520;15.068;2023-02-01T00:53:40;6.17;;;1.87;;
71838;SDS011;59687;37.520;15.068;2023-02-01T00:56:11;5.97;;;1.88;;
71838;SDS011;59687;37.520;15.068;2023-02-01T00:58:39;5.22;;;2.13;;
71838;SDS011;59687;37.520;15.068;2023-02-01T01:01:08;7.45;;;2.10;;
71838;SDS011;59687;37.520;15.068;2023-02-01T01:03:51;6.25;;;2.08;;
71838;SDS011;59687;37.520;15.068;2023-02-01T01:06:25;5.10;;;1.97;;
71838;SDS011;59687;37.520;15.068;2023-02-01T01:09:03;7.18;;;2.25;;
71838;SDS011;59687;37.520;15.068;2023-02-01T01:11:33;6.07;;;2.47;;
71838;SDS011;59687;37.520;15.068;2023-02-01T01:14:04;5.00;;;1.95;;
71838;SDS011;59687;37.520;15.068;2023-02-01T01:16:35;6.32;;;2.00;;
71838;SDS011;59687;37.520;15.068;2023-02-01T01:19:02;5.27;;;2.00;;
71838;SDS011;59687;37.520;15.068;2023-02-01T01:21:29;5.55;;;1.45;;
71838;SDS011;59687;37.520;15.068;2023-02-01T01:23:57;4.28;;;1.27;;
71838;SDS011;59687;37.520;15.068;2023-02-01T01:26:27;7.57;;;1.75;;
71838;SDS011;59687;37.520;15.068;2023-02-01T01:28:56;4.32;;;1.73;;
71838;SDS011;59687;37.520;15.068;2023-02-01T01:31:25;4.53;;;1.60;;
71838;SDS011;59687;37.520;15.068;2023-02-01T01:33:55;3.58;;;1.40;;
71838;SDS011;59687;37.520;15.068;2023-02-01T01:36:24;5.85;;;1.80;;
71838;SDS011;59687;37.520;15.068;2023-02-01T01:38:55;7.88;;;1.80;;
71838;SDS011;59687;37.520;15.068;2023-02-01T01:41:23;4.55;;;1.63;;
71838;SDS011;59687;37.520;15.068;2023-02-01T01:43:56;5.53;;;1.53;;
71838;SDS011;59687;37.520;15.068;2023-02-01T01:46:36;5.25;;;1.45;;
71838;SDS011;59687;37.520;15.068;2023-02-01T01:49:09;3.95;;;1.35;;
71838;SDS011;59687;37.520;15.068;2023-02-01T01:51:47;7.32;;;1.80;;
71838;SDS011;59687;37.520;15.068;2023-02-01T01:54:22;7.32;;;1.85;;
71838;SDS011;59687;37.520;15.068;2023-02-01T01:57:00;7.17;;;2.23;;
71838;SDS011;59687;37.520;15.068;2023-02-01T01:59:31;4.50;;;1.50;;
71838;SDS011;59687;37.520;15.068;2023-02-01T02:02:06;4.30;;;1.42;;
71838;SDS011;59687;37.520;15.068;2023-02-01T02:04:35;4.68;;;1.42;;
71838;SDS011;59687;37.520;15.068;2023-02-01T02:07:10;4.03;;;1.40;;
71838;SDS011;59687;37.520;15.068;2023-02-01T02:09:42;5.57;;;1.73;;
71838;SDS011;59687;37.520;15.068;2023-02-01T02:12:24;4.95;;;1.67;;
71838;SDS011;59687;37.520;15.068;2023-02-01T02:14:52;5.75;;;1.70;;
71838;SDS011;59687;37.520;15.068;2023-02-01T02:26:15;4.55;;;1.60;;
71838;SDS011;59687;37.520;15.068;2023-02-01T02:29:07;6.28;;;1.60;;
71838;SDS011;59687;37.520;15.068;2023-02-01T02:34:48;4.90;;;1.75;;
71838;SDS011;59687;37.520;15.068;2023-02-01T02:42:50;4.80;;;1.60;;
71838;SDS011;59687;37.520;15.068;2023-02-01T02:49:20;6.40;;;1.88;;
71838;SDS011;59687;37.520;15.068;2023-02-01T02:51:54;4.67;;;1.40;;
71838;SDS011;59687;37.520;15.068;2023-02-01T02:54:46;6.10;;;1.40;;
71838;SDS011;59687;37.520;15.068;2023-02-01T02:57:20;5.60;;;1.90;;
71838;SDS011;59687;37.520;15.068;2023-02-01T03:00:24;5.70;;;1.98;;
71838;SDS011;59687;37.520;15.068;2023-02-01T03:03:15;4.68;;;1.50;;
71838;SDS011;59687;37.520;15.068;2023-02-01T03:06:00;5.53;;;1.90;;
71838;SDS011;59687;37.520;15.068;2023-02-01T03:08:32;4.97;;;1.50;;
71838;SDS011;59687;37.520;15.068;2023-02-01T03:11:00;6.05;;;1.80;;
71838;SDS011;59687;37.520;15.068;2023-02-01T03:21:50;4.75;;;1.80;;
71838;SDS011;59687;37.520;15.068;2023-02-01T03:24:25;5.60;;;1.80;;
71838;SDS011;59687;37.520;15.068;2023-02-01T03:27:20;4.60;;;1.50;;
71838;SDS011;59687;37.520;15.068;2023-02-01T03:30:53;5.22;;;1.38;;
71838;SDS011;59687;37.520;15.068;2023-02-01T03:33:21;6.40;;;1.40;;
71838;SDS011;59687;37.520;15.068;2023-02-01T03:47:06;7.87;;;2.03;;
71838;SDS011;59687;37.520;15.068;2023-02-01T03:49:42;4.85;;;1.65;;
71838;SDS011;59687;37.520;15.068;2023-02-01T03:52:15;6.15;;;2.00;;
71838;SDS011;59687;37.520;15.068;2023-02-01T03:54:47;6.45;;;1.98;;
71838;SDS011;59687;37.520;15.068;2023-02-01T03:57:18;7.72;;;1.90;;
71838;SDS011;59687;37.520;15.068;2023-02-01T03:59:50;6.30;;;1.77;;
71838;SDS011;59687;37.520;15.068;2023-02-01T04:02:18;5.13;;;1.60;;
71838;SDS011;59687;37.520;15.068;2023-02-01T04:04:48;5.90;;;1.50;;
71838;SDS011;59687;37.520;15.068;2023-02-01T04:07:17;5.53;;;1.90;;
71838;SDS011;59687;37.520;15.068;2023-02-01T04:09:45;4.88;;;1.52;;
71838;SDS011;59687;37.520;15.068;2023-02-01T04:12:16;6.90;;;2.30;;
71838;SDS011;59687;37.520;15.068;2023-02-01T04:14:45;5.85;;;2.53;;
71838;SDS011;59687;37.520;15.068;2023-02-01T04:17:13;7.07;;;2.17;;
71838;SDS011;59687;37.520;15.068;2023-02-01T04:19:44;6.13;;;2.05;;
71838;SDS011;59687;37.520;15.068;2023-02-01T04:22:11;7.78;;;1.98;;
71838;SDS011;59687;37.520;15.068;2023-02-01T04:24:38;4.47;;;1.73;;
71838;SDS011;59687;37.520;15.068;2023-02-01T04:27:05;5.55;;;2.10;;
71838;SDS011;59687;37.520;15.068;2023-02-01T04:29:32;4.93;;;1.77;;
71838;SDS011;59687;37.520;15.068;2023-02-01T04:32:02;4.82;;;1.88;;
71838;SDS011;59687;37.520;15.068;2023-02-01T04:34:30;4.50;;;1.83;;
71838;SDS011;59687;37.520;15.068;2023-02-01T04:36:57;6.90;;;2.00;;
71838;SDS011;59687;37.520;15.068;2023-02-01T04:39:24;5.60;;;1.90;;
71838;SDS011;59687;37.520;15.068;2023-02-01T04:41:51;4.68;;;1.80;;
71838;SDS011;59687;37.520;15.068;2023-02-01T04:44:18;4.78;;;1.70;;
71838;SDS011;59687;37.520;15.068;2023-02-01T04:46:46;5.68;;;2.03;;
71838;SDS011;59687;37.520;15.068;2023-02-01T04:49:14;4.00;;;1.53;;
71838;SDS011;59687;37.520;15.068;2023-02-01T04:51:42;5.07;;;2.00;;
71838;SDS011;59687;37.520;15.068;2023-02-01T04:54:10;4.75;;;1.90;;
71838;SDS011;59687;37.520;15.068;2023-02-01T04:56:42;5.07;;;1.70;;
71838;SDS011;59687;37.520;15.068;2023-02-01T04:59:10;5.00;;;1.70;;
71838;SDS011;59687;37.520;15.068;2023-02-01T05:01:37;4.97;;;1.70;;
71838;SDS011;59687;37.520;15.068;2023-02-01T05:04:05;6.97;;;2.00;;
71838;SDS011;59687;37.520;15.068;2023-02-01T05:06:32;6.47;;;1.90;;
71838;SDS011;59687;37.520;15.068;2023-02-01T05:08:59;4.57;;;1.52;;
71838;SDS011;59687;37.520;15.068;2023-02-01T05:11:26;3.95;;;1.55;;
71838;SDS011;59687;37.520;15.068;2023-02-01T05:14:12;4.93;;;1.90;;
71838;SDS011;59687;37.520;15.068;2023-02-01T05:16:39;7.35;;;2.10;;
71838;SDS011;59687;37.520;15.068;2023-02-01T05:19:06;5.38;;;1.80;;
71838;SDS011;59687;37.520;15.068;2023-02-01T05:21:33;6.10;;;1.77;;
71838;SDS011;59687;37.520;15.068;2023-02-01T05:24:01;4.47;;;1.60;;
71838;SDS011;59687;37.520;15.068;2023-02-01T05:26:40;5.37;;;1.70;;
71838;SDS011;59687;37.520;15.068;2023-02-01T05:29:08;4.65;;;1.60;;
71838;SDS011;59687;37.520;15.068;2023-02-01T05:31:36;5.18;;;1.80;;
71838;SDS011;59687;37.520;15.068;2023-02-01T05:34:04;4.85;;;1.70;;
71838;SDS011;59687;37.520;15.068;2023-02-01T05:36:31;5.53;;;1.90;;
71838;SDS011;59687;37.520;15.068;2023-02-01T05:38:58;5.73;;;2.23;;
71838;SDS011;59687;37.520;15.068;2023-02-01T05:41:26;6.88;;;2.05;;
71838;SDS011;59687;37.520;15.068;2023-02-01T05:43:53;6.97;;;2.30;;
71838;SDS011;59687;37.520;15.068;2023-02-01T05:46:20;8.82;;;2.63;;
71838;SDS011;59687;37.520;15.068;2023-02-01T05:48:50;6.20;;;2.22;;
71838;SDS011;59687;37.520;15.068;2023-02-01T05:51:17;7.53;;;2.23;;
71838;SDS011;59687;37.520;15.068;2023-02-01T05:53:46;7.10;;;2.72;;
71838;SDS011;59687;37.520;15.068;2023-02-01T05:56:15;5.50;;;2.42;;
71838;SDS011;59687;37.520;15.068;2023-02-01T05:58:43;5.07;;;2.30;;
71838;SDS011;59687;37.520;15.068;2023-02-01T06:01:15;6.10;;;2.80;;
71838;SDS011;59687;37.520;15.068;2023-02-01T06:03:42;9.83;;;2.63;;
71838;SDS011;59687;37.520;15.068;2023-02-01T06:06:10;4.68;;;2.20;;
71838;SDS011;59687;37.520;15.068;2023-02-01T06:08:37;6.93;;;2.55;;
71838;SDS011;59687;37.520;15.068;2023-02-01T06:11:07;5.65;;;2.60;;
71838;SDS011;59687;37.520;15.068;2023-02-01T06:13:34;7.63;;;2.40;;
71838;SDS011;59687;37.520;15.068;2023-02-01T06:16:04;6.70;;;2.60;;
71838;SDS011;59687;37.520;15.068;2023-02-01T06:18:34;6.65;;;2.53;;
71838;SDS011;59687;37.520;15.068;2023-02-01T06:21:06;5.78;;;3.10;;
71838;SDS011;59687;37.520;15.068;2023-02-01T06:23:35;7.47;;;2.80;;
71838;SDS011;59687;37.520;15.068;2023-02-01T06:26:03;8.02;;;3.33;;
71838;SDS011;59687;37.520;15.068;2023-02-01T06:28:33;9.20;;;3.23;;
71838;SDS011;59687;37.520;15.068;2023-02-01T06:31:06;9.13;;;4.05;;
71838;SDS011;59687;37.520;15.068;2023-02-01T06:33:35;9.93;;;4.53;;
71838;SDS011;59687;37.520;15.068;2023-02-01T06:36:04;8.68;;;3.72;;
71838;SDS011;59687;37.520;15.068;2023-02-01T06:38:35;6.03;;;3.35;;
71838;SDS011;59687;37.520;15.068;2023-02-01T06:41:02;8.50;;;3.50;;
71838;SDS011;59687;37.520;15.068;2023-02-01T06:43:34;7.82;;;3.85;;
71838;SDS011;59687;37.520;15.068;2023-02-01T06:46:07;6.57;;;3.60;;
71838;SDS011;59687;37.520;15.068;2023-02-01T06:48:36;8.13;;;3.78;;
71838;SDS011;59687;37.520;15.068;2023-02-01T06:51:03;9.05;;;4.30;;
71838;SDS011;59687;37.520;15.068;2023-02-01T06:53:31;7.47;;;3.50;;
71838;SDS011;59687;37.520;15.068;2023-02-01T06:55:59;9.80;;;3.60;;
71838;SDS011;59687;37.520;15.068;2023-02-01T06:58:32;7.20;;;3.95;;
71838;SDS011;59687;37.520;15.068;2023-02-01T07:01:07;8.02;;;3.65;;
71838;SDS011;59687;37.520;15.068;2023-02-01T07:03:35;8.15;;;3.40;;
71838;SDS011;59687;37.520;15.068;2023-02-01T07:06:04;7.00;;;3.33;;
71838;SDS011;59687;37.520;15.068;2023-02-01T07:08:33;9.43;;;3.65;;
71838;SDS011;59687;37.520;15.068;2023-02-01T07:11:10;7.05;;;3.50;;
71838;SDS011;59687;37.520;15.068;2023-02-01T07:13:41;14.02;;;8.30;;
71838;SDS011;59687;37.520;15.068;2023-02-01T07:16:12;16.73;;;9.65;;
71838;SDS011;59687;37.520;15.068;2023-02-01T07:18:41;11.90;;;7.27;;
71838;SDS011;59687;37.520;15.068;2023-02-01T07:21:08;10.85;;;6.55;;
71838;SDS011;59687;37.520;15.068;2023-02-01T07:23:37;14.68;;;7.43;;
71838;SDS011;59687;37.520;15.068;2023-02-01T07:26:05;14.68;;;8.80;;
71838;SDS011;59687;37.520;15.068;2023-02-01T07:28:35;10.68;;;7.43;;
71838;SDS011;59687;37.520;15.068;2023-02-01T07:31:09;13.83;;;7.50;;
71838;SDS011;59687;37.520;15.068;2023-02-01T07:33:38;13.38;;;7.70;;
71838;SDS011;59687;37.520;15.068;2023-02-01T07:36:06;13.65;;;6.90;;
71838;SDS011;59687;37.520;15.068;2023-02-01T07:38:35;13.18;;;6.95;;
71838;SDS011;59687;37.520;15.068;2023-02-01T07:41:05;10.45;;;6.43;;
71838;SDS011;59687;37.520;15.068;2023-02-01T07:43:33;11.33;;;5.53;;
71838;SDS011;59687;37.520;15.068;2023-02-01T07:46:01;10.43;;;4.55;;
71838;SDS011;59687;37.520;15.068;2023-02-01T07:48:31;9.27;;;4.80;;
71838;SDS011;59687;37.520;15.068;2023-02-01T07:51:01;11.82;;;7.28;;
71838;SDS011;59687;37.520;15.068;2023-02-01T07:53:42;9.85;;;4.32;;
71838;SDS011;59687;37.520;15.068;2023-02-01T07:56:15;6.23;;;3.17;;
71838;SDS011;59687;37.520;15.068;2023-02-01T07:58:49;6.40;;;3.20;;
71838;SDS011;59687;37.520;15.068;2023-02-01T08:01:23;12.85;;;4.05;;
71838;SDS011;59687;37.520;15.068;2023-02-01T08:03:54;9.95;;;3.00;;
71838;SDS011;59687;37.520;15.068;2023-02-01T08:06:26;5.97;;;2.38;;
71838;SDS011;59687;37.520;15.068;2023-02-01T08:08:54;5.73;;;2.20;;
71838;SDS011;59687;37.520;15.068;2023-02-01T08:11:22;4.60;;;1.98;;
71838;SDS011;59687;37.520;15.068;2023-02-01T08:13:50;6.85;;;2.28;;
71838;SDS011;59687;37.520;15.068;2023-02-01T08:16:21;5.82;;;1.95;;
71838;SDS011;59687;37.520;15.068;2023-02-01T08:18:56;4.07;;;1.60;;
71838;SDS011;59687;37.520;15.068;2023-02-01T08:21:25;5.73;;;1.63;;
71838;SDS011;59687;37.520;15.068;2023-02-01T08:24:05;4.95;;;1.92;;
71838;SDS011;59687;37.520;15.068;2023-02-01T08:26:35;5.65;;;1.85;;
71838;SDS011;59687;37.520;15.068;2023-02-01T08:29:08;6.88;;;2.45;;
71838;SDS011;59687;37.520;15.068;2023-02-01T08:31:39;7.07;;;2.92;;
71838;SDS011;59687;37.520;15.068;2023-02-01T08:34:08;6.23;;;3.00;;
71838;SDS011;59687;37.520;15.068;2023-02-01T08:36:41;8.02;;;3.40;;
71838;SDS011;59687;37.520;15.068;2023-02-01T08:39:10;6.00;;;2.20;;
71838;SDS011;59687;37.520;15.068;2023-02-01T08:41:41;4.82;;;1.60;;
71838;SDS011;59687;37.520;15.068;2023-02-01T08:44:28;6.40;;;1.50;;
71838;SDS011;59687;37.520;15.068;2023-02-01T08:47:00;5.10;;;1.60;;
71838;SDS011;59687;37.520;15.068;2023-02-01T08:49:30;5.65;;;1.40;;
71838;SDS011;59687;37.520;15.068;2023-02-01T08:52:00;4.90;;;1.23;;
71838;SDS011;59687;37.520;15.068;2023-02-01T08:54:41;4.72;;;1.17;;
71838;SDS011;59687;37.520;15.068;2023-02-01T08:57:16;4.20;;;1.17;;
71838;SDS011;59687;37.520;15.068;2023-02-01T08:59:48;5.33;;;1.40;;
71838;SDS011;59687;37.520;15.068;2023-02-01T09:02:16;4.80;;;1.20;;
71838;SDS011;59687;37.520;15.068;2023-02-01T09:04:47;4.03;;;1.00;;
71838;SDS011;59687;37.520;15.068;2023-02-01T09:07:14;2.92;;;0.80;;
71838;SDS011;59687;37.520;15.068;2023-02-01T09:09:43;4.70;;;0.80;;
71838;SDS011;59687;37.520;15.068;2023-02-01T09:12:14;4.33;;;1.03;;
71838;SDS011;59687;37.520;15.068;2023-02-01T09:14:40;4.53;;;1.00;;
71838;SDS011;59687;37.520;15.068;2023-02-01T09:17:09;5.40;;;2.00;;
71838;SDS011;59687;37.520;15.068;2023-02-01T09:19:37;5.35;;;1.30;;
71838;SDS011;59687;37.520;15.068;2023-02-01T09:22:05;4.55;;;1.10;;
71838;SDS011;59687;37.520;15.068;2023-02-01T09:24:35;5.60;;;1.73;;
71838;SDS011;59687;37.520;15.068;2023-02-01T09:27:04;4.85;;;1.80;;
71838;SDS011;59687;37.520;15.068;2023-02-01T09:29:35;5.10;;;1.20;;
71838;SDS011;59687;37.520;15.068;2023-02-01T09:32:02;5.10;;;1.60;;
71838;SDS011;59687;37.520;15.068;2023-02-01T09:34:30;7.05;;;2.30;;
71838;SDS011;59687;37.520;15.068;2023-02-01T09:36:57;5.67;;;2.20;;
71838;SDS011;59687;37.520;15.068;2023-02-01T09:39:24;6.35;;;2.60;;
71838;SDS011;59687;37.520;15.068;2023-02-01T09:47:18;5.50;;;1.80;;
71838;SDS011;59687;37.520;15.068;2023-02-01T09:52:43;6.10;;;1.50;;
71838;SDS011;59687;37.520;15.068;2023-02-01T09:55:49;5.97;;;1.30;;
71838;SDS011;59687;37.520;15.068;2023-02-01T09:58:41;5.03;;;1.70;;
71838;SDS011;59687;37.520;15.068;2023-02-01T10:01:19;4.75;;;1.40;;
71838;SDS011;59687;37.520;15.068;2023-02-01T10:03:49;6.40;;;1.80;;
71838;SDS011;59687;37.520;15.068;2023-02-01T10:06:28;6.07;;;1.80;;
71838;SDS011;59687;37.520;15.068;2023-02-01T10:09:24;5.95;;;1.98;;
71838;SDS011;59687;37.520;15.068;2023-02-01T10:19:58;4.90;;;1.25;;
71838;SDS011;59687;37.520;15.068;2023-02-01T10:25:31;5.22;;;1.80;;
71838;SDS011;59687;37.520;15.068;2023-02-01T10:28:22;5.00;;;1.85;;
71838;SDS011;59687;37.520;15.068;2023-02-01T10:30:51;5.70;;;2.13;;
71838;SDS011;59687;37.520;15.068;2023-02-01T10:33:27;5.38;;;2.28;;
71838;SDS011;59687;37.520;15.068;2023-02-01T10:36:08;6.25;;;2.63;;
71838;SDS011;59687;37.520;15.068;2023-02-01T10:38:46;4.97;;;2.35;;
71838;SDS011;59687;37.520;15.068;2023-02-01T10:41:16;5.13;;;1.90;;
71838;SDS011;59687;37.520;15.068;2023-02-01T10:43:50;8.33;;;1.80;;
71838;SDS011;59687;37.520;15.068;2023-02-01T10:46:22;4.38;;;1.63;;
71838;SDS011;59687;37.520;15.068;2023-02-01T10:48:49;6.88;;;1.63;;
71838;SDS011;59687;37.520;15.068;2023-02-01T10:51:26;4.20;;;1.40;;
71838;SDS011;59687;37.520;15.068;2023-02-01T10:54:13;4.18;;;1.55;;
71838;SDS011;59687;37.520;15.068;2023-02-01T10:56:46;5.10;;;1.67;;
71838;SDS011;59687;37.520;15.068;2023-02-01T10:59:23;4.95;;;1.75;;
71838;SDS011;59687;37.520;15.068;2023-02-01T11:02:00;4.65;;;1.40;;
71838;SDS011;59687;37.520;15.068;2023-02-01T11:04:33;4.60;;;2.42;;
71838;SDS011;59687;37.520;15.068;2023-02-01T11:07:17;6.18;;;2.00;;
71838;SDS011;59687;37.520;15.068;2023-02-01T11:09:54;5.60;;;1.73;;
71838;SDS011;59687;37.520;15.068;2023-02-01T11:12:25;4.40;;;1.45;;
71838;SDS011;59687;37.520;15.068;2023-02-01T11:15:12;5.22;;;1.83;;
71838;SDS011;59687;37.520;15.068;2023-02-01T11:17:43;5.05;;;1.55;;
71838;SDS011;59687;37.520;15.068;2023-02-01T11:20:17;4.47;;;1.50;;
71838;SDS011;59687;37.520;15.068;2023-02-01T11:22:46;4.30;;;1.60;;
71838;SDS011;59687;37.520;15.068;2023-02-01T11:25:25;4.25;;;1.50;;
71838;SDS011;59687;37.520;15.068;2023-02-01T11:27:54;4.93;;;1.60;;
71838;SDS011;59687;37.520;15.068;2023-02-01T11:30:37;5.72;;;2.33;;
71838;SDS011;59687;37.520;15.068;2023-02-01T11:33:13;5.50;;;1.52;;
71838;SDS011;59687;37.520;15.068;2023-02-01T11:35:44;4.73;;;1.50;;
71838;SDS011;59687;37.520;15.068;2023-02-01T11:38:17;5.22;;;2.17;;
71838;SDS011;59687;37.520;15.068;2023-02-01T11:40:44;7.03;;;2.00;;
71838;SDS011;59687;37.520;15.068;2023-02-01T11:48:31;4.63;;;1.60;;
71838;SDS011;59687;37.520;15.068;2023-02-01T12:16:17;4.73;;;1.20;;
71838;SDS011;59687;37.520;15.068;2023-02-01T12:18:41;4.38;;;1.50;;
71838;SDS011;59687;37.520;15.068;2023-02-01T12:35:28;5.85;;;1.88;;
71838;SDS011;59687;37.520;15.068;2023-02-01T12:43:54;3.43;;;0.73;;
71838;SDS011;59687;37.520;15.068;2023-02-01T12:46:35;2.45;;;0.57;;
71838;SDS011;59687;37.520;15.068;2023-02-01T12:52:02;3.90;;;1.10;;
71838;SDS011;59687;37.520;15.068;2023-02-01T12:55:18;3.97;;;1.00;;
71838;SDS011;59687;37.520;15.068;2023-02-01T12:57:46;6.13;;;1.17;;
71838;SDS011;59687;37.520;15.068;2023-02-01T13:00:23;3.58;;;0.77;;
71838;SDS011;59687;37.520;15.068;2023-02-01T13:06:02;3.55;;;1.00;;
71838;SDS011;59687;37.520;15.068;2023-02-01T13:08:40;4.22;;;1.17;;
71838;SDS011;59687;37.520;15.068;2023-02-01T13:11:16;4.20;;;1.10;;
71838;SDS011;59687;37.520;15.068;2023-02-01T13:16:32;3.80;;;0.90;;
71838;SDS011;59687;37.520;15.068;2023-02-01T13:19:10;3.30;;;0.70;;
71838;SDS011;59687;37.520;15.068;2023-02-01T13:21:48;3.10;;;0.90;;
71838;SDS011;59687;37.520;15.068;2023-02-01T13:24:29;4.57;;;1.57;;
71838;SDS011;59687;37.520;15.068;2023-02-01T13:27:00;3.42;;;0.93;;
71838;SDS011;59687;37.520;15.068;2023-02-01T13:29:28;3.97;;;0.85;;
71838;SDS011;59687;37.520;15.068;2023-02-01T13:37:39;3.87;;;1.23;;
71838;SDS011;59687;37.520;15.068;2023-02-01T13:43:19;4.53;;;0.95;;
71838;SDS011;59687;37.520;15.068;2023-02-01T13:45:56;5.47;;;1.20;;
71838;SDS011;59687;37.520;15.068;2023-02-01T13:48:41;4.68;;;1.10;;
71838;SDS011;59687;37.520;15.068;2023-02-01T13:51:15;4.17;;;1.00;;
71838;SDS011;59687;37.520;15.068;2023-02-01T13:53:48;4.88;;;1.00;;
71838;SDS011;59687;37.520;15.068;2023-02-01T13:56:18;3.45;;;0.90;;
71838;SDS011;59687;37.520;15.068;2023-02-01T13:58:48;3.47;;;1.00;;
71838;SDS011;59687;37.520;15.068;2023-02-01T14:04:02;5.47;;;1.20;;
71838;SDS011;59687;37.520;15.068;2023-02-01T14:11:41;3.53;;;0.75;;
71838;SDS011;59687;37.520;15.068;2023-02-01T14:19:39;4.10;;;1.10;;
71838;SDS011;59687;37.520;15.068;2023-02-01T14:24:51;3.70;;;1.17;;
71838;SDS011;59687;37.520;15.068;2023-02-01T14:29:57;5.13;;;1.20;;
71838;SDS011;59687;37.520;15.068;2023-02-01T14:32:34;3.97;;;1.23;;
71838;SDS011;59687;37.520;15.068;2023-02-01T14:35:06;5.20;;;1.48;;
71838;SDS011;59687;37.520;15.068;2023-02-01T14:37:47;9.10;;;1.85;;
71838;SDS011;59687;37.520;15.068;2023-02-01T14:40:20;4.60;;;1.20;;
71838;SDS011;59687;37.520;15.068;2023-02-01T14:42:53;3.63;;;0.90;;
71838;SDS011;59687;37.520;15.068;2023-02-01T14:48:38;3.95;;;1.10;;
71838;SDS011;59687;37.520;15.068;2023-02-01T14:50:42;3.90;;;1.15;;
71838;SDS011;59687;37.520;15.068;2023-02-01T14:53:17;3.38;;;1.00;;
71838;SDS011;59687;37.520;15.068;2023-02-01T14:56:07;4.97;;;1.40;;
71838;SDS011;59687;37.520;15.068;2023-02-01T14:58:40;11.02;;;4.10;;
71838;SDS011;59687;37.520;15.068;2023-02-01T15:01:34;4.90;;;1.40;;
71838;SDS011;59687;37.520;15.068;2023-02-01T15:04:06;3.95;;;1.50;;
71838;SDS011;59687;37.520;15.068;2023-02-01T15:14:25;6.13;;;1.40;;
71838;SDS011;59687;37.520;15.068;2023-02-01T15:16:58;5.43;;;1.30;;
71838;SDS011;59687;37.520;15.068;2023-02-01T15:19:27;5.00;;;1.40;;
71838;SDS011;59687;37.520;15.068;2023-02-01T15:21:59;5.63;;;1.60;;
71838;SDS011;59687;37.520;15.068;2023-02-01T15:24:30;4.70;;;1.75;;
71838;SDS011;59687;37.520;15.068;2023-02-01T15:27:05;6.25;;;1.67;;
71838;SDS011;59687;37.520;15.068;2023-02-01T15:29:38;4.82;;;1.80;;
71838;SDS011;59687;37.520;15.068;2023-02-01T15:32:06;7.30;;;1.88;;
71838;SDS011;59687;37.520;15.068;2023-02-01T15:34:54;7.67;;;3.10;;
71838;SDS011;59687;37.520;15.068;2023-02-01T15:37:23;8.73;;;2.78;;
71838;SDS011;59687;37.520;15.068;2023-02-01T15:42:48;5.47;;;1.90;;
71838;SDS011;59687;37.520;15.068;2023-02-01T15:45:27;8.07;;;2.08;;
71838;SDS011;59687;37.520;15.068;2023-02-01T15:48:01;6.87;;;2.07;;
71838;SDS011;59687;37.520;15.068;2023-02-01T15:50:29;7.15;;;2.33;;
71838;SDS011;59687;37.520;15.068;2023-02-01T15:52:57;7.43;;;1.90;;
71838;SDS011;59687;37.520;15.068;2023-02-01T15:58:14;6.45;;;2.03;;
71838;SDS011;59687;37.520;15.068;2023-02-01T16:00:49;8.63;;;2.60;;
71838;SDS011;59687;37.520;15.068;2023-02-01T16:03:36;7.57;;;2.35;;
71838;SDS011;59687;37.520;15.068;2023-02-01T16:06:12;9.38;;;2.63;;
71838;SDS011;59687;37.520;15.068;2023-02-01T16:08:59;8.55;;;2.20;;
71838;SDS011;59687;37.520;15.068;2023-02-01T16:11:46;7.65;;;2.33;;
71838;SDS011;59687;37.520;15.068;2023-02-01T16:14:22;6.07;;;2.30;;
71838;SDS011;59687;37.520;15.068;2023-02-01T16:16:50;7.95;;;2.40;;
71838;SDS011;59687;37.520;15.068;2023-02-01T16:19:23;6.75;;;1.65;;
71838;SDS011;59687;37.520;15.068;2023-02-01T16:21:55;6.57;;;1.95;;
71838;SDS011;59687;37.520;15.068;2023-02-01T16:24:25;6.22;;;1.80;;
71838;SDS011;59687;37.520;15.068;2023-02-01T16:26:59;7.93;;;1.70;;
71838;SDS011;59687;37.520;15.068;2023-02-01T16:29:26;5.18;;;1.50;;
71838;SDS011;59687;37.520;15.068;2023-02-01T16:31:53;7.55;;;2.00;;
71838;SDS011;59687;37.520;15.068;2023-02-01T16:34:21;5.93;;;1.77;;
71838;SDS011;59687;37.520;15.068;2023-02-01T16:36:49;6.18;;;1.80;;
71838;SDS011;59687;37.520;15.068;2023-02-01T16:39:23;8.80;;;1.80;;
71838;SDS011;59687;37.520;15.068;2023-02-01T16:41:50;5.95;;;1.40;;
71838;SDS011;59687;37.520;15.068;2023-02-01T16:44:21;4.95;;;2.00;;
71838;SDS011;59687;37.520;15.068;2023-02-01T16:46:49;6.00;;;2.42;;
71838;SDS011;59687;37.520;15.068;2023-02-01T16:49:30;6.45;;;2.33;;
71838;SDS011;59687;37.520;15.068;2023-02-01T16:52:01;9.17;;;1.80;;
71838;SDS011;59687;37.520;15.068;2023-02-01T16:54:29;7.55;;;2.28;;
71838;SDS011;59687;37.520;15.068;2023-02-01T16:57:02;9.38;;;2.55;;
71838;SDS011;59687;37.520;15.068;2023-02-01T16:59:37;7.50;;;2.00;;
71838;SDS011;59687;37.520;15.068;2023-02-01T17:02:04;6.47;;;2.95;;
71838;SDS011;59687;37.520;15.068;2023-02-01T17:04:32;8.40;;;4.80;;
71838;SDS011;59687;37.520;15.068;2023-02-01T17:07:06;6.95;;;3.60;;
71838;SDS011;59687;37.520;15.068;2023-02-01T17:09:37;8.93;;;3.47;;
71838;SDS011;59687;37.520;15.068;2023-02-01T17:12:15;7.13;;;3.55;;
71838;SDS011;59687;37.520;15.068;2023-02-01T17:14:55;8.02;;;3.05;;
71838;SDS011;59687;37.520;15.068;2023-02-01T17:17:25;9.60;;;3.67;;
71838;SDS011;59687;37.520;15.068;2023-02-01T17:20:04;7.65;;;3.30;;
71838;SDS011;59687;37.520;15.068;2023-02-01T17:22:36;8.05;;;4.18;;
71838;SDS011;59687;37.520;15.068;2023-02-01T17:25:03;7.50;;;3.53;;
71838;SDS011;59687;37.520;15.068;2023-02-01T17:27:45;8.35;;;3.30;;
71838;SDS011;59687;37.520;15.068;2023-02-01T17:30:17;6.40;;;3.13;;
71838;SDS011;59687;37.520;15.068;2023-02-01T17:32:44;6.97;;;2.90;;
71838;SDS011;59687;37.520;15.068;2023-02-01T17:35:17;7.72;;;3.67;;
71838;SDS011;59687;37.520;15.068;2023-02-01T17:37:50;8.45;;;3.70;;
71838;SDS011;59687;37.520;15.068;2023-02-01T17:40:23;8.43;;;4.28;;
71838;SDS011;59687;37.520;15.068;2023-02-01T17:42:53;8.33;;;3.90;;
71838;SDS011;59687;37.520;15.068;2023-02-01T17:45:33;5.15;;;2.85;;
71838;SDS011;59687;37.520;15.068;2023-02-01T17:48:26;5.32;;;1.98;;